TAF and METAR

Could not understand the following METAR

NCMG 141500Z AUTO 02005KT //// ////// 24/21 Q1006
No TAF available for Mangaia Island Airport
Mangaia Island Airport in Cook Islands

Latest 5 airports